»·PEaware :: N83AM L08-KAVX

N83AM :: L08-KAVX

FLIGHT INFORMATION

Flight Status: Arrived
Operator: Privately registered:
United States
More flights under this callsign
Pilot: Andrew M. (18915)
Aircraft: CESSNA 172 SKYHAWK
(C172)
More flights by this aircraft type
Origin: L08 Borrego Valley
United States
Destination: KAVX Catalina
United States
More flights between these airports :: More routes between these airports
Route: +OCN SXC
File this flight plan on PilotEdge
Remarks:
Altitude:
(Current/Filed)
8,500ft
Speed:
(Current/Filed)
120kts
Departed: 23-Apr-18 01:05 PM
Arrived: 23-Apr-18 02:25 PM
Distance/Time
Traveled:
105nm/1:20
Distance/Time
To Go:
Arrived

Flight Plot

Page will automatically refresh every two minutes.

Flight plan parsing failed; only flown route is shown


Map Options




Map Legend


Flown Route
Filed Route
Departure Airport
Arrival Airport
Navaid (VOR, NDB)
Fix

Horizontal Profiles

Position Reports

Time Latitude Longitude Heading Altitude Ground
Speed
23-Apr-18 13:02 33.258873 -116.328620 89 520ft 0kts
23-Apr-18 13:03 33.258873 -116.328620 89 520ft 0kts
23-Apr-18 13:04 33.258909 -116.325059 89 519ft 59kts
23-Apr-18 13:05 33.259859 -116.304634 54 1150ft 67kts
23-Apr-18 13:06 33.265223 -116.308927 282 1615ft 77kts
23-Apr-18 13:07 33.262890 -116.312313 306 2024ft 91kts
23-Apr-18 13:08 33.257076 -116.339403 235 2885ft 88kts
23-Apr-18 13:09 33.248956 -116.367028 240 3709ft 89kts
23-Apr-18 13:10 33.236213 -116.392871 244 4271ft 95kts
23-Apr-18 13:11 33.227927 -116.421959 248 4870ft 90kts
23-Apr-18 13:12 33.219675 -116.451129 248 5480ft 97kts
23-Apr-18 13:13 33.214813 -116.483873 267 6063ft 104kts
23-Apr-18 13:14 33.217289 -116.519131 276 6572ft 108kts
23-Apr-18 13:15 33.220311 -116.551274 276 7073ft 83kts
23-Apr-18 13:16 33.223316 -116.574934 275 7628ft 65kts
23-Apr-18 13:17 33.226784 -116.597649 275 8024ft 73kts
23-Apr-18 13:18 33.230951 -116.622339 276 8416ft 78kts
23-Apr-18 13:19 33.235865 -116.650328 276 8607ft 99kts
23-Apr-18 13:20 33.241561 -116.684571 276 8635ft 108kts
23-Apr-18 13:21 33.247431 -116.720540 275 8634ft 111kts
23-Apr-18 13:22 33.249669 -116.757100 268 8634ft 110kts
23-Apr-18 13:23 33.251118 -116.793605 268 8634ft 110kts
23-Apr-18 13:24 33.252601 -116.830166 268 8634ft 110kts
23-Apr-18 13:25 33.254115 -116.866694 268 8634ft 109kts
23-Apr-18 13:26 33.255201 -116.902982 259 8633ft 108kts
23-Apr-18 13:27 33.250495 -116.938663 261 8624ft 109kts
23-Apr-18 13:28 33.248558 -116.974757 265 8625ft 108kts
23-Apr-18 13:29 33.247536 -117.010878 266 8625ft 108kts
23-Apr-18 13:30 33.246784 -117.046895 267 8624ft 108kts
23-Apr-18 13:31 33.246112 -117.082717 268 8625ft 107kts
23-Apr-18 13:32 33.245458 -117.118305 268 8625ft 107kts
23-Apr-18 13:33 33.244803 -117.154022 268 8624ft 107kts
23-Apr-18 13:34 33.244138 -117.189774 268 8622ft 107kts
23-Apr-18 13:35 33.243461 -117.225490 268 8621ft 107kts
23-Apr-18 13:36 33.242773 -117.261336 267 8620ft 107kts
23-Apr-18 13:37 33.242074 -117.297150 267 8619ft 108kts
23-Apr-18 13:38 33.241363 -117.333031 267 8564ft 111kts
23-Apr-18 13:39 33.240653 -117.371537 267 8120ft 113kts
23-Apr-18 13:40 33.239935 -117.406512 267 8107ft 102kts
23-Apr-18 13:41 33.242982 -117.441471 277 8102ft 108kts
23-Apr-18 13:42 33.247900 -117.477110 277 8095ft 108kts
23-Apr-18 13:43 33.252801 -117.512600 278 8088ft 108kts
23-Apr-18 13:44 33.257680 -117.547961 278 8118ft 105kts
23-Apr-18 13:45 33.262470 -117.582809 278 8123ft 107kts
23-Apr-18 13:46 33.267498 -117.619330 278 7987ft 111kts
23-Apr-18 13:47 33.272379 -117.654942 278 7988ft 108kts
23-Apr-18 13:48 33.277224 -117.690396 278 7989ft 108kts
23-Apr-18 13:49 33.282059 -117.725833 278 7989ft 108kts
23-Apr-18 13:50 33.286784 -117.761294 278 7989ft 108kts
23-Apr-18 13:51 33.291679 -117.796797 278 7989ft 108kts
23-Apr-18 13:52 33.296792 -117.832181 280 7988ft 108kts
23-Apr-18 13:53 33.303733 -117.866092 277 7991ft 107kts
23-Apr-18 13:54 33.307634 -117.901974 277 7994ft 109kts
23-Apr-18 13:55 33.311528 -117.937977 277 7708ft 109kts
23-Apr-18 13:56 33.315506 -117.975072 277 7251ft 116kts
23-Apr-18 13:57 33.319760 -118.015062 277 6568ft 124kts
23-Apr-18 13:58 33.324192 -118.056321 279 5868ft 125kts
23-Apr-18 13:59 33.329740 -118.097429 279 5168ft 124kts
23-Apr-18 14:00 33.335210 -118.137788 279 4706ft 121kts
23-Apr-18 14:01 33.340603 -118.177180 279 4303ft 119kts
23-Apr-18 14:02 33.345801 -118.214707 279 4054ft 109kts
23-Apr-18 14:03 33.350570 -118.248829 279 4020ft 103kts
23-Apr-18 14:04 33.355690 -118.284731 280 4021ft 111kts
23-Apr-18 14:05 33.360600 -118.318149 280 4023ft 100kts
23-Apr-18 14:06 33.365368 -118.350000 280 4023ft 93kts
23-Apr-18 14:07 33.370261 -118.381178 283 4023ft 98kts
23-Apr-18 14:08 33.387989 -118.403343 344 3653ft 99kts
23-Apr-18 14:09 33.414538 -118.401097 356 3538ft 94kts
23-Apr-18 14:10 33.442047 -118.398909 3 3467ft 102kts
23-Apr-18 14:11 33.468657 -118.398037 353 3553ft 98kts
23-Apr-18 14:12 33.495170 -118.396756 9 3489ft 90kts
23-Apr-18 14:13 33.520552 -118.393542 0 3546ft 96kts
23-Apr-18 14:14 33.541901 -118.409434 315 3587ft 96kts
23-Apr-18 14:15 33.562124 -118.428511 13 3604ft 93kts
23-Apr-18 14:16 33.554888 -118.405403 144 3664ft 99kts
23-Apr-18 14:17 33.528431 -118.401147 175 3498ft 94kts
23-Apr-18 14:18 33.502375 -118.398425 174 3352ft 94kts
23-Apr-18 14:19 33.478309 -118.390961 159 3353ft 87kts
23-Apr-18 14:20 33.455848 -118.382558 170 3111ft 82kts
23-Apr-18 14:21 33.435845 -118.378519 197 2932ft 63kts
23-Apr-18 14:22 33.422432 -118.387052 226 2523ft 62kts
23-Apr-18 14:23 33.412190 -118.403656 236 1860ft 61kts
23-Apr-18 14:24 33.405485 -118.414952 228 1540ft 14kts

Navigation Log

Ident Type
Flight plan parsing failed, navigation log unavailable